Time;durP1;ratioP1;P1;durP2;ratioP2;P2;SDS_P1;SDS_P2;PMS_P1;PMS_P2;Temp;Humidity;BMP_temperature;BMP_pressure;BME280_temperature;BME280_humidity;BME280_pressure;Samples;Min_cycle;Max_cycle;Signal;HPM_P1;HPM_P2
2021/07/07 00:00:12;;;;;;;7.88;2.47;;;;;;;;;;5114001;28;20016;-74
2021/07/07 00:02:38;;;;;;;6.15;2.83;;;;;;;;;;5113458;28;20483;-74
2021/07/07 00:05:05;;;;;;;5.82;2.55;;;;;;;;;;5112400;28;20110;-74
2021/07/07 00:07:31;;;;;;;8.95;2.80;;;28.30;48.70;;;;;;5113772;28;20034;-73
2021/07/07 00:09:57;;;;;;;10.77;2.80;;;25.40;69.20;;;;;;5113330;28;20035;-74
2021/07/07 00:12:22;;;;;;;6.20;2.58;;;25.30;69.20;;;;;;5113459;28;20024;-74
2021/07/07 00:14:48;;;;;;;3.75;2.55;;;25.30;68.90;;;;;;5113389;28;20048;-75
2021/07/07 00:17:14;;;;;;;4.55;2.42;;;;;;;;;;5113552;28;20026;-74
2021/07/07 00:19:40;;;;;;;6.95;2.72;;;;;;;;;;5113201;28;20034;-75
2021/07/07 00:22:06;;;;;;;4.65;2.60;;;;;;;;;;5113351;28;20096;-74
2021/07/07 00:24:32;;;;;;;5.70;2.42;;;;;;;;;;5113639;28;20023;-74
2021/07/07 00:26:58;;;;;;;6.53;2.63;;;;;;;;;;5115866;28;20024;-74
2021/07/07 00:29:24;;;;;;;4.07;2.30;;;;;;;;;;5116285;28;20077;-75
2021/07/07 00:31:50;;;;;;;5.80;2.70;;;;;;;;;;5117991;28;20112;-75
2021/07/07 00:34:17;;;;;;;8.40;2.85;;;;;;;;;;5117352;28;20399;-75
2021/07/07 00:36:43;;;;;;;3.90;2.58;;;;;;;;;;5117443;28;20028;-74
2021/07/07 00:39:09;;;;;;;9.07;2.75;;;;;;;;;;5117591;28;20023;-76
2021/07/07 00:41:35;;;;;;;4.85;2.53;;;;;;;;;;5117273;28;20027;-73
2021/07/07 00:44:01;;;;;;;6.95;2.63;;;;;;;;;;5117553;28;20024;-74
2021/07/07 00:46:27;;;;;;;4.32;2.80;;;;;;;;;;5117738;28;20030;-75
2021/07/07 00:48:53;;;;;;;8.38;3.28;;;;;;;;;;5117296;28;20036;-74
2021/07/07 00:51:19;;;;;;;9.95;2.78;;;;;;;;;;5117015;28;20028;-75
2021/07/07 00:53:45;;;;;;;10.68;3.15;;;;;;;;;;5117176;28;20031;-75
2021/07/07 00:56:12;;;;;;;3.72;2.45;;;;;;;;;;5117180;28;20024;-74
2021/07/07 00:58:38;;;;;;;4.03;2.72;;;;;;;;;;5115157;28;20479;-74
2021/07/07 01:01:05;;;;;;;4.05;2.63;;;;;;;;;;5114208;28;20034;-74
2021/07/07 01:03:31;;;;;;;7.28;3.10;;;;;;;;;;5113974;28;20027;-75
2021/07/07 01:05:57;;;;;;;6.32;3.08;;;;;;;;;;5116492;28;20032;-74
2021/07/07 01:08:23;;;;;;;4.43;2.70;;;;;;;;;;5116802;28;20024;-75
2021/07/07 01:10:49;;;;;;;10.45;2.88;;;;;;;;;;5116935;28;20066;-74
2021/07/07 01:13:15;;;;;;;5.53;2.58;;;;;;;;;;5116558;28;20023;-74
2021/07/07 01:15:42;;;;;;;3.15;2.72;;;;;;;;;;5116470;28;20052;-74
2021/07/07 01:18:09;;;;;;;6.93;2.78;;;;;;;;;;5116785;28;20016;-74
2021/07/07 01:20:35;;;;;;;5.78;2.80;;;;;;;;;;5116483;28;20051;-75
2021/07/07 01:23:03;;;;;;;5.97;2.50;;;;;;;;;;5116433;28;20110;-75
2021/07/07 01:25:29;;;;;;;4.07;2.42;;;;;;;;;;5115320;28;20015;-74
2021/07/07 01:27:57;;;;;;;3.25;2.63;;;;;;;;;;5116333;28;20487;-74
2021/07/07 01:30:23;;;;;;;9.00;2.83;;;;;;;;;;5116239;28;20039;-75
2021/07/07 01:32:51;;;;;;;6.13;2.20;;;;;;;;;;5116138;28;20023;-76
2021/07/07 01:35:17;;;;;;;4.47;2.72;;;;;;;;;;5116076;28;20023;-75
2021/07/07 01:37:44;;;;;;;5.40;2.70;;;;;;;;;;5115461;28;20016;-74
2021/07/07 01:40:13;;;;;;;6.10;2.60;;;;;;;;;;5116232;28;20023;-74
2021/07/07 01:42:39;;;;;;;4.05;2.33;;;;;;;;;;5115845;28;20032;-74
2021/07/07 01:45:06;;;;;;;9.82;2.60;;;;;;;;;;5116243;28;20479;-75
2021/07/07 01:47:32;;;;;;;6.07;3.03;;;;;;;;;;5116121;28;20476;-75
2021/07/07 01:50:00;;;;;;;5.32;3.17;;;;;;;;;;5115900;28;20040;-75
2021/07/07 01:52:26;;;;;;;10.13;3.28;;;;;;;;;;5115430;28;20027;-74
2021/07/07 01:54:52;;;;;;;7.50;3.58;;;;;;;;;;5115894;28;20107;-75
2021/07/07 01:57:18;;;;;;;5.68;2.90;;;;;;;;;;5115897;28;20051;-75
2021/07/07 01:59:44;;;;;;;4.80;3.08;;;;;;;;;;5115646;28;20027;-75
2021/07/07 02:02:10;;;;;;;6.05;2.75;;;;;;;;;;5116009;28;20083;-75
2021/07/07 02:04:36;;;;;;;4.78;2.53;;;;;;;;;;5115780;28;20031;-75
2021/07/07 02:07:03;;;;;;;7.43;2.45;;;;;;;;;;5115752;28;20379;-74
2021/07/07 02:09:29;;;;;;;5.65;2.83;;;;;;;;;;5115760;28;20422;-74
2021/07/07 02:11:55;;;;;;;8.70;2.50;;;;;;;;;;5114458;28;20042;-75
2021/07/07 02:14:21;;;;;;;4.60;2.00;;;;;;;;;;5115244;28;20510;-75
2021/07/07 02:16:47;;;;;;;7.53;2.80;;;;;;;;;;5114160;28;20032;-76
2021/07/07 02:19:13;;;;;;;5.55;2.35;;;;;;;;;;5115431;28;20023;-75
2021/07/07 02:21:39;;;;;;;4.95;2.83;;;;;;;;;;5115508;28;20098;-75
2021/07/07 02:24:06;;;;;;;5.05;2.60;;;;;;;;;;5115494;28;20069;-73
2021/07/07 02:26:32;;;;;;;4.35;3.00;;;;;;;;;;5115177;28;20050;-75
2021/07/07 02:28:58;;;;;;;5.88;2.60;;;;;;;;;;5115446;28;20067;-75
2021/07/07 02:31:24;;;;;;;3.60;2.65;;;;;;;;;;5115396;28;20039;-75
2021/07/07 02:33:50;;;;;;;9.52;2.70;;;;;;;;;;5115045;28;20062;-75
2021/07/07 02:36:16;;;;;;;7.50;2.50;;;;;;;;;;5115057;28;20081;-75
2021/07/07 02:38:42;;;;;;;4.45;2.67;;;;;;;;;;5115219;28;20454;-75
2021/07/07 02:41:08;;;;;;;7.32;2.33;;;;;;;;;;5115238;28;20062;-76
2021/07/07 02:43:34;;;;;;;5.40;2.67;;;;;;;;;;5115019;28;20024;-74
2021/07/07 02:46:01;;;;;;;7.25;2.50;;;;;;;;;;5114830;28;20042;-75
2021/07/07 02:48:27;;;;;;;5.18;2.72;;;;;;;;;;5114286;28;20030;-75
2021/07/07 02:50:53;;;;;;;5.28;2.60;;;;;;;;;;5114638;28;20036;-74
2021/07/07 02:53:19;;;;;;;4.65;2.40;;;;;;;;;;5115038;28;20031;-74
2021/07/07 02:55:46;;;;;;;4.88;2.55;;;;;;;;;;5114637;28;20034;-74
2021/07/07 02:58:12;;;;;;;3.78;2.75;;;;;;;;;;5114579;28;20016;-74
2021/07/07 03:00:49;;;;;;;3.58;2.58;;;;;;;;;;5114715;28;20111;-73
2021/07/07 03:03:15;;;;;;;6.97;2.88;;;;;;;;;;5114573;28;20095;-75
2021/07/07 03:05:42;;;;;;;6.43;2.60;;;;;;;;;;5114575;28;20031;-74
2021/07/07 03:08:09;;;;;;;6.28;2.85;;;;;;;;;;5114523;28;20028;-74
2021/07/07 03:10:36;;;;;;;6.60;2.70;;;;;;;;;;5114338;28;20499;-74
2021/07/07 03:13:02;;;;;;;5.80;2.45;;;;;;;;;;5114695;28;20034;-74
2021/07/07 03:15:28;;;;;;;6.45;2.90;;;;;;;;;;5114381;28;20047;-74
2021/07/07 03:17:55;;;;;;;7.75;2.78;;;;;;;;;;5114394;28;20464;-74
2021/07/07 03:20:21;;;;;;;7.13;3.03;;;;;;;;;;5114153;28;20016;-74
2021/07/07 03:22:47;;;;;;;2.88;2.63;;;;;;;;;;5114043;28;20028;-76
2021/07/07 03:25:13;;;;;;;5.03;2.80;;;;;;;;;;5114394;28;20023;-75
2021/07/07 03:27:39;;;;;;;5.65;3.10;;;;;;;;;;5114268;28;20099;-75
2021/07/07 03:30:06;;;;;;;4.57;3.03;;;;;;;;;;5114060;28;20502;-74
2021/07/07 03:32:32;;;;;;;5.03;2.83;;;;;;;;;;5113741;28;20076;-74
2021/07/07 03:34:58;;;;;;;8.75;2.97;;;;;;;;;;5114173;28;20029;-74
2021/07/07 03:37:25;;;;;;;5.35;3.22;;;;;;;;;;5114059;28;20031;-75
2021/07/07 03:39:51;;;;;;;6.78;3.13;;;;;;;;;;5114181;28;20024;-75
2021/07/07 03:42:17;;;;;;;8.27;3.67;;;;;;;;;;5113892;28;20085;-74
2021/07/07 03:44:43;;;;;;;5.50;3.20;;;;;;;;;;5113813;28;20024;-75
2021/07/07 03:47:10;;;;;;;6.13;3.53;;;;;;;;;;5113822;28;20488;-76
2021/07/07 03:49:36;;;;;;;8.55;3.10;;;;;;;;;;5112379;28;20496;-75
2021/07/07 03:52:02;;;;;;;7.70;3.10;;;;;;;;;;5113762;28;20032;-75
2021/07/07 03:54:28;;;;;;;11.55;3.95;;;;;;;;;;5113740;28;20019;-74
2021/07/07 03:56:55;;;;;;;5.78;3.22;;;;;;;;;;5113649;28;20027;-74
2021/07/07 03:59:22;;;;;;;9.38;3.60;;;;;;;;;;5113803;28;20020;-74
2021/07/07 04:01:48;;;;;;;9.00;3.90;;;;;;;;;;5113407;28;20015;-74
2021/07/07 04:04:14;;;;;;;6.50;3.53;;;;;;;;;;5113594;28;20019;-75
2021/07/07 04:06:41;;;;;;;13.00;3.53;;;;;;;;;;5113414;28;20383;-74
2021/07/07 04:09:07;;;;;;;4.80;3.13;;;;;;;;;;5113774;28;20031;-74
2021/07/07 04:11:33;;;;;;;11.15;3.38;;;;;;;;;;5113577;28;20384;-74
2021/07/07 04:13:59;;;;;;;12.88;3.72;;;;;;;;;;5113255;28;20106;-75
2021/07/07 04:16:25;;;;;;;14.85;4.18;;;;;;;;;;5113429;28;20039;-76
2021/07/07 04:18:52;;;;;;;14.23;3.40;;;;;;;;;;5113653;28;20079;-74
2021/07/07 04:21:18;;;;;;;6.40;4.25;;;;;;;;;;5113389;28;20024;-75
2021/07/07 04:23:44;;;;;;;11.00;4.22;;;;;;;;;;5113261;28;20357;-75
2021/07/07 04:26:11;;;;;;;10.25;3.70;;;;;;;;;;5113499;28;20055;-75
2021/07/07 04:28:37;;;;;;;17.27;3.72;;;;;;;;;;5113621;28;20075;-75
2021/07/07 04:31:03;;;;;;;5.47;3.40;;;;;;;;;;5113315;28;20035;-74
2021/07/07 04:33:29;;;;;;;8.38;3.70;;;;;;;;;;5112100;28;20027;-74
2021/07/07 04:35:55;;;;;;;7.45;3.20;;;;;;;;;;5113357;28;20471;-74
2021/07/07 04:38:21;;;;;;;4.93;3.42;;;;;;;;;;5113276;28;20047;-74
2021/07/07 04:40:47;;;;;;;4.97;3.10;;;;;;;;;;5113283;28;20028;-75
2021/07/07 04:43:13;;;;;;;7.30;3.42;;;;;;;;;;5111589;28;20113;-75
2021/07/07 04:45:39;;;;;;;6.15;3.20;;;;;;;;;;5110970;28;20023;-74
2021/07/07 04:48:05;;;;;;;5.28;3.10;;;;;;;;;;5112251;28;20039;-74
2021/07/07 04:50:31;;;;;;;3.97;3.20;;;;;;;;;;5110023;28;20036;-73
2021/07/07 04:52:57;;;;;;;5.88;2.80;;;;;;;;;;5110404;28;20020;-74
2021/07/07 04:55:23;;;;;;;6.28;2.90;;;;;;;;;;5112245;28;20171;-74
2021/07/07 04:57:49;;;;;;;6.18;2.65;;;;;;;;;;5112267;28;20028;-73
2021/07/07 05:00:19;;;;;;;5.25;2.72;;;;;;;;;;5113114;28;20023;-74
2021/07/07 05:02:45;;;;;;;3.72;2.47;;;;;;;;;;5113140;28;20475;-73
2021/07/07 05:05:13;;;;;;;4.57;2.40;;;;;;;;;;5112040;28;20019;-73
2021/07/07 05:07:39;;;;;;;5.30;2.53;;;;;;;;;;5111752;28;20476;-73
2021/07/07 05:10:05;;;;;;;4.95;2.92;;;;;;;;;;5112962;28;20035;-73
2021/07/07 05:12:32;;;;;;;3.03;2.50;;;;;;;;;;5114359;28;20023;-74
2021/07/07 05:15:00;;;;;;;5.30;2.88;;;;;;;;;;5116856;28;20058;-73
2021/07/07 05:17:26;;;;;;;4.85;2.47;;;;;;;;;;5116875;28;20030;-73
2021/07/07 05:19:52;;;;;;;8.32;2.97;;;;;;;;;;5116829;28;20023;-74
2021/07/07 05:22:18;;;;;;;5.93;2.30;;;;;;;;;;5116690;28;20470;-73
2021/07/07 05:24:45;;;;;;;6.55;2.40;;;;;;;;;;5116730;28;20107;-73
2021/07/07 05:27:11;;;;;;;4.18;2.55;;;;;;;;;;5115553;28;20448;-74
2021/07/07 05:29:37;;;;;;;7.03;2.63;;;;;;;;;;5116606;28;20448;-73
2021/07/07 05:32:04;;;;;;;5.60;2.33;;;;;;;;;;5116314;28;20090;-73
2021/07/07 05:34:30;;;;;;;4.35;2.20;;;;;;;;;;5116521;28;20424;-74
2021/07/07 05:36:56;;;;;;;4.60;2.40;;;;;;;;;;5116385;28;20046;-73
2021/07/07 05:39:22;;;;;;;3.72;2.15;;;;;;;;;;5116293;28;20149;-73
2021/07/07 05:41:48;;;;;;;3.58;2.40;;;;;;;;;;5116244;28;20024;-73
2021/07/07 05:44:14;;;;;;;7.43;2.40;;;;;;;;;;5115946;28;20052;-73
2021/07/07 05:46:41;;;;;;;4.10;2.60;;;;;;;;;;5116345;28;20479;-73
2021/07/07 05:49:07;;;;;;;6.07;2.50;;;;;;;;;;5116151;28;20035;-73
2021/07/07 05:51:33;;;;;;;4.15;2.05;;;;;;;;;;5116227;28;20020;-76
2021/07/07 05:53:59;;;;;;;4.85;2.33;;;;;;;;;;5116025;28;20031;-74
2021/07/07 05:56:25;;;;;;;21.08;3.00;;;;;;;;;;5116091;28;20468;-74
2021/07/07 05:58:51;;;;;;;4.32;2.03;;;;;;;;;;5115907;28;20024;-73
2021/07/07 06:01:17;;;;;;;4.32;2.30;;;;;;;;;;5115848;28;20038;-74
2021/07/07 06:03:43;;;;;;;6.75;2.50;;;;;;;;;;5115907;28;20026;-74
2021/07/07 06:06:09;;;;;;;3.78;2.28;;;;;;;;;;5115538;28;20051;-73
2021/07/07 06:08:35;;;;;;;4.25;2.47;;;;;;;;;;5115650;28;20030;-75
2021/07/07 06:11:02;;;;;;;5.03;2.67;;;;;;;;;;5115718;28;20097;-75
2021/07/07 06:13:28;;;;;;;3.47;2.50;;;;;;;;;;5115130;28;20369;-74
2021/07/07 06:15:54;;;;;;;5.05;2.50;;;;;;;;;;5115502;28;20047;-72
2021/07/07 06:18:20;;;;;;;5.70;2.45;;;;;;;;;;5115437;28;20024;-71
2021/07/07 06:20:46;;;;;;;7.43;2.63;;;;;;;;;;5115694;28;20160;-72
2021/07/07 06:23:12;;;;;;;12.25;3.38;;;;;;;;;;5115318;28;20023;-73
2021/07/07 06:25:39;;;;;;;11.02;3.50;;;;;;;;;;5115205;28;20081;-72
2021/07/07 06:28:05;;;;;;;6.95;2.80;;;;;;;;;;5114288;28;20028;-72
2021/07/07 06:30:31;;;;;;;8.05;2.70;;;;;;;;;;5114469;28;20092;-73
2021/07/07 06:32:59;;;;;;;12.35;3.17;;;;;;;;;;5113983;28;20026;-72
2021/07/07 06:35:26;;;;;;;11.10;3.38;;;;;;;;;;5114887;28;20020;-71
2021/07/07 06:37:53;;;;;;;12.35;3.42;;;;;;;;;;5113638;28;20024;-71
2021/07/07 06:40:20;;;;;;;18.02;4.05;;;;;;;;;;5114757;28;20027;-71
2021/07/07 06:42:46;;;;;;;18.75;4.20;;;;;;;;;;5114625;28;20380;-72
2021/07/07 06:45:12;;;;;;;10.70;3.70;;;;;;;;;;5114072;28;20024;-73
2021/07/07 06:47:39;;;;;;;19.23;3.95;;;;;;;;;;5113968;28;20035;-77
2021/07/07 06:50:06;;;;;;;12.90;3.50;;;;;;;;;;5114637;28;20066;-76
2021/07/07 06:52:32;;;;;;;14.50;3.67;;;;;;;;;;5114777;28;20031;-75
2021/07/07 06:54:58;;;;;;;7.80;3.40;;;;;;;;;;5114711;28;20016;-73
2021/07/07 06:57:24;;;;;;;7.80;3.65;;;24.10;70.30;;;;;;5114657;28;20086;-70
2021/07/07 06:59:50;;;;;;;11.93;3.47;;;;;;;;;;5114792;28;20068;-69
2021/07/07 07:02:16;;;;;;;9.43;3.25;;;;;;;;;;5114363;28;20023;-69
2021/07/07 07:04:42;;;;;;;11.93;3.08;;;;;;;;;;5113739;28;20080;-69
2021/07/07 07:07:08;;;;;;;20.13;4.15;;;;;;;;;;5114036;28;20016;-71
2021/07/07 07:09:34;;;;;;;8.77;3.13;;;;;;;;;;5114085;28;20024;-70
2021/07/07 07:12:00;;;;;;;5.47;2.83;;;;;;;;;;5112098;28;20031;-75
2021/07/07 07:14:26;;;;;;;7.05;2.90;;;;;;;;;;5112432;28;20047;-70
2021/07/07 07:16:52;;;;;;;5.88;2.88;;;;;;;;;;5114180;28;20097;-71
2021/07/07 07:19:18;;;;;;;9.20;2.35;;;;;;;;;;5114521;28;20524;-70
2021/07/07 07:21:45;;;;;;;9.13;2.70;;;;;;;;;;5114306;28;20383;-69
2021/07/07 07:24:12;;;;;;;9.30;2.65;;;;;;;;;;5114430;28;20074;-70
2021/07/07 07:26:38;;;;;;;5.95;2.70;;;;;;;;;;5114309;28;20015;-70
2021/07/07 07:29:05;;;;;;;7.10;2.80;;;;;;;;;;5114253;28;20089;-71
2021/07/07 07:31:31;;;;;;;7.60;2.80;;;;;;;;;;5114429;28;20032;-70
2021/07/07 07:33:57;;;;;;;4.88;2.80;;;;;;;;;;5113906;28;20069;-70
2021/07/07 07:36:23;;;;;;;7.10;2.55;;;;;;;;;;5113459;28;20452;-70
2021/07/07 07:38:58;;;;;;;5.97;2.58;;;;;;;;;;5114126;28;20065;-68
2021/07/07 07:41:27;;;;;;;4.57;2.33;;;;;;;;;;5114119;28;20026;-68
2021/07/07 07:43:53;;;;;;;7.88;2.30;;;;;;;;;;5114031;28;20447;-69
2021/07/07 07:46:19;;;;;;;7.82;2.33;;;;;;;;;;5113933;28;20016;-68
2021/07/07 07:48:45;;;;;;;3.80;2.20;;;;;;;;;;5113789;28;20434;-68
2021/07/07 07:51:11;;;;;;;5.38;2.33;;;;;;;;;;5113932;28;20472;-67
2021/07/07 07:53:37;;;;;;;5.30;2.13;;;;;;;;;;5113891;28;20110;-69
2021/07/07 07:56:03;;;;;;;7.05;2.40;;;;;;;;;;5114068;28;20107;-69
2021/07/07 07:58:29;;;;;;;6.07;2.25;;;;;;;;;;5113817;28;20031;-68
2021/07/07 08:00:55;;;;;;;4.53;2.13;;;;;;;;;;5113572;28;20019;-68
2021/07/07 08:03:21;;;;;;;5.10;2.13;;;;;;;;;;5113880;28;20376;-69
2021/07/07 08:05:47;;;;;;;3.58;2.00;;;;;;;;;;5113820;28;20023;-68
2021/07/07 08:08:13;;;;;;;4.45;2.13;;;;;;;;;;5113792;28;20498;-69
2021/07/07 08:10:39;;;;;;;5.78;2.03;;;;;;;;;;5113741;28;20082;-68
2021/07/07 08:13:05;;;;;;;5.30;2.03;;;;;;;;;;5113468;28;20099;-67
2021/07/07 08:15:32;;;;;;;3.53;2.13;;;;;;;;;;5113487;28;20044;-67
2021/07/07 08:17:58;;;;;;;5.57;1.90;;;;;;;;;;5113911;28;20071;-67
2021/07/07 08:20:25;;;;;;;4.35;2.30;;;;;;;;;;5113499;28;20023;-67
2021/07/07 08:22:51;;;;;;;5.05;1.98;;;;;;;;;;5113271;28;20107;-67
2021/07/07 08:25:18;;;;;;;4.63;1.95;;;;;;;;;;5113520;28;20046;-67
2021/07/07 08:27:44;;;;;;;6.50;2.10;;;;;;;;;;5113355;28;20046;-68
2021/07/07 08:30:11;;;;;;;2.35;1.83;;;;;;;;;;5113263;28;20035;-67
2021/07/07 08:32:37;;;;;;;2.80;1.77;;;;;;;;;;5113670;28;20062;-67
2021/07/07 08:35:04;;;;;;;2.05;1.65;;;;;;;;;;5113589;28;20047;-67
2021/07/07 08:37:30;;;;;;;2.80;1.73;;;;;;;;;;5113293;28;20039;-67
2021/07/07 08:39:56;;;;;;;3.88;1.80;;;;;;;;;;5113381;28;20062;-68
2021/07/07 08:42:22;;;;;;;2.42;1.70;;;;;;;;;;5113473;28;20097;-67
2021/07/07 08:44:48;;;;;;;3.80;1.80;;;;;;;;;;5113319;28;20031;-67
2021/07/07 08:47:15;;;;;;;6.68;1.60;;;;;;;;;;5114387;28;20484;-67
2021/07/07 08:49:41;;;;;;;5.95;1.70;;;;;;;;;;5117119;28;20028;-67
2021/07/07 08:52:07;;;;;;;4.20;1.88;;;;;;;;;;5117508;28;20023;-67
2021/07/07 08:54:33;;;;;;;6.53;1.90;;;;;;;;;;5117361;28;20024;-67
2021/07/07 08:57:09;;;;;;;5.85;2.13;;;;;;;;;;5117349;28;20422;-71
2021/07/07 08:59:36;;;;;;;9.13;2.50;;;;;;;;;;5117289;28;20099;-75
2021/07/07 09:02:06;;;;;;;7.30;2.33;;;;;;;;;;5117017;28;20024;-75
2021/07/07 09:04:37;;;;;;;5.20;2.20;;;;;;;;;;5117058;28;20535;-75
2021/07/07 09:07:07;;;;;;;7.20;2.10;;;;;;;;;;5116976;28;20034;-72
2021/07/07 09:09:46;;;;;;;4.63;2.53;;;;;;;;;;5116743;28;20032;-75
2021/07/07 09:12:30;;;;;;;6.68;2.10;;;;;;;;;;5117057;28;20110;-75
2021/07/07 09:15:10;;;;;;;5.00;2.17;;;;;;;;;;5116694;28;20400;-75
2021/07/07 09:17:41;;;;;;;3.90;2.00;;;;;;;;;;5116874;28;20035;-75
2021/07/07 09:20:24;;;;;;;2.35;2.15;;;;;;;;;;5115608;28;20027;-75
2021/07/07 09:22:50;;;;;;;4.03;2.00;;;;;;;;;;5115178;28;20024;-75
2021/07/07 09:25:20;;;;;;;3.78;1.85;;;;;;;;;;5116728;28;20027;-75
2021/07/07 09:27:46;;;;;;;2.75;1.92;;;;;;;;;;5116742;28;20051;-75
2021/07/07 09:30:13;;;;;;;2.97;2.15;;;;;;;;;;5116502;28;20070;-75
2021/07/07 09:32:46;;;;;;;3.63;2.00;;;;;;;;;;5116589;28;20023;-76
2021/07/07 09:35:13;;;;;;;2.33;1.77;;;;;;;;;;5116733;28;20387;-75
2021/07/07 09:37:45;;;;;;;7.40;1.80;;;;;;;;;;5116767;28;20020;-75
2021/07/07 09:40:12;;;;;;;5.63;2.42;;;;;;;;;;5116581;28;20057;-75
2021/07/07 09:42:39;;;;;;;4.13;2.05;;;;;;;;;;5116302;28;20050;-75
2021/07/07 09:45:13;;;;;;;3.15;1.67;;;;;;;;;;5116185;28;20032;-75
2021/07/07 09:47:40;;;;;;;2.60;1.60;;;;;;;;;;5116246;28;20022;-75
2021/07/07 09:50:07;;;;;;;6.75;2.13;;;;;;;;;;5115940;28;20495;-75
2021/07/07 09:52:33;;;;;;;4.30;1.70;;;;;;;;;;5116015;28;20026;-75
2021/07/07 09:55:06;;;;;;;2.00;1.70;;;;;;;;;;5116042;28;20407;-75
2021/07/07 09:57:32;;;;;;;3.00;2.03;;;;;;;;;;5115812;28;20379;-75
2021/07/07 09:59:58;;;;;;;9.05;2.10;;;;;;;;;;5115808;28;20478;-75
2021/07/07 10:02:25;;;;;;;3.05;1.70;;;;;;;;;;5114777;28;20028;-75
2021/07/07 10:04:52;;;;;;;3.05;1.67;;;;;;;;;;5116199;28;20396;-75
2021/07/07 10:07:18;;;;;;;2.58;1.80;;;;;;;;;;5115977;28;20068;-75
2021/07/07 10:09:45;;;;;;;3.60;1.80;;;;;;;;;;5115789;28;20036;-75
2021/07/07 10:12:11;;;;;;;12.93;2.85;;;;;;;;;;5115838;28;20077;-75
2021/07/07 10:14:37;;;;;;;3.58;1.50;;;;;;;;;;5115652;28;20453;-76
2021/07/07 10:17:04;;;;;;;2.42;1.52;;;;;;;;;;5115987;28;20016;-76
2021/07/07 10:19:30;;;;;;;2.72;1.38;;;;;;;;;;5115743;28;20040;-75
2021/07/07 10:21:56;;;;;;;1.98;1.50;;;;;;;;;;5115752;28;20055;-76
2021/07/07 10:24:24;;;;;;;2.05;1.60;;;;;;;;;;5115841;28;20379;-75
2021/07/07 10:26:51;;;;;;;3.75;1.90;;;;;;;;;;5115270;28;20491;-75
2021/07/07 10:29:18;;;;;;;4.88;1.42;;;;;;;;;;5114339;28;20121;-75
2021/07/07 10:31:45;;;;;;;1.83;1.48;;;;;;;;;;5115538;28;20027;-74
2021/07/07 10:34:11;;;;;;;2.58;1.60;;;;;;;;;;5115652;28;20027;-75
2021/07/07 10:36:39;;;;;;;1.83;1.42;;;;;;;;;;5115391;28;20023;-75
2021/07/07 10:39:07;;;;;;;2.20;1.42;;;;;;;;;;5115233;28;20464;-74
2021/07/07 10:41:42;;;;;;;3.13;1.70;;;;;;;;;;5115285;28;20089;-76
2021/07/07 10:44:12;;;;;;;3.30;1.40;;;;;;;;;;5115400;28;20475;-75
2021/07/07 10:47:00;;;;;;;1.85;1.45;;;;;;;;;;5115090;28;20111;-75
2021/07/07 10:49:27;;;;;;;2.33;1.50;;;;;;;;;;5115173;28;20115;-75
2021/07/07 10:51:54;;;;;;;1.40;1.30;;;;;;;;;;5114854;28;20043;-75
2021/07/07 10:54:31;;;;;;;2.08;1.17;;;;;;;;;;5114994;28;20023;-75
2021/07/07 10:56:57;;;;;;;4.45;1.40;;;;;;;;;;5115177;28;20023;-75
2021/07/07 10:59:26;;;;;;;4.95;1.45;;;;;;;;;;5115040;28;20023;-76
2021/07/07 11:02:19;;;;;;;1.10;1.00;;;;;;;;;;5114813;28;20035;-75
2021/07/07 11:04:46;;;;;;;3.28;1.25;;;;;;;;;;5112554;28;20522;-75
2021/07/07 11:07:22;;;;;;;0.95;0.85;;;;;;;;;;5113598;28;20027;-75
2021/07/07 11:09:52;;;;;;;1.45;1.10;;;;;;;;;;5114010;28;20027;-74
2021/07/07 11:12:20;;;;;;;2.20;1.10;;;;;;;;;;5115010;28;20421;-75
2021/07/07 11:14:59;;;;;;;2.55;1.00;;;;;;;;;;5114308;28;20176;-75
2021/07/07 11:17:31;;;;;;;1.33;1.13;;;;;;;;;;5113317;28;20023;-75
2021/07/07 11:19:58;;;;;;;4.07;1.00;;;;;;;;;;5114511;28;20357;-75
2021/07/07 11:22:25;;;;;;;4.90;1.30;;;;;;;;;;5114418;28;20461;-75
2021/07/07 11:24:53;;;;;;;4.00;0.90;;;;;;;;;;5114279;28;20030;-75
2021/07/07 11:27:20;;;;;;;3.28;1.10;;;;;;;;;;5114567;27;20023;-74
2021/07/07 11:29:46;;;;;;;1.65;1.23;;;;;;;;;;5112957;28;20169;-75
2021/07/07 11:32:30;;;;;;;1.70;0.90;;;;;;;;;;5114399;28;20024;-75
2021/07/07 11:34:58;;;;;;;1.25;1.00;;;;;;;;;;5113045;28;20388;-75
2021/07/07 11:37:25;;;;;;;5.15;0.88;;;;;;;;;;5114349;28;20015;-74
2021/07/07 11:40:21;;;;;;;1.20;1.00;;;;;;;;;;5113923;28;20027;-75
2021/07/07 11:42:53;;;;;;;2.45;1.10;;;;;;;;;;5104702;28;20027;-74
2021/07/07 11:45:23;;;;;;;1.02;0.75;;;;;;;;;;5114198;28;20042;-75
2021/07/07 11:47:52;;;;;;;1.17;0.90;;;;;;;;;;5114133;28;20035;-75
2021/07/07 11:50:18;;;;;;;6.68;1.00;;;;;;;;;;5113812;28;20483;-75
2021/07/07 11:53:00;;;;;;;2.63;1.00;;;;;;;;;;5113666;28;20030;-74
2021/07/07 11:55:45;;;;;;;1.92;0.98;;;;;;;;;;5113990;28;20020;-75
2021/07/07 11:58:12;;;;;;;1.77;0.90;;;;;;;;;;5113998;28;20112;-75
2021/07/07 12:00:38;;;;;;;2.90;0.98;;;;;;;;;;5114188;28;20020;-77
2021/07/07 12:03:05;;;;;;;1.23;0.75;;;;;;;;;;5113769;28;20106;-76
2021/07/07 12:05:31;;;;;;;2.15;1.00;;;;;;;;;;5112521;28;20020;-75
2021/07/07 12:08:13;;;;;;;1.13;1.00;;;;;;;;;;5113783;28;20027;-76
2021/07/07 12:10:39;;;;;;;2.40;1.20;;;;;;;;;;5112366;28;20042;-75
2021/07/07 12:13:25;;;;;;;2.25;1.25;;;;;;;;;;5113484;28;20107;-74
2021/07/07 12:15:52;;;;;;;2.55;1.10;;;;;;;;;;5113618;28;20051;-75
2021/07/07 12:18:24;;;;;;;1.60;1.17;;;;;;;;;;5113834;28;20031;-75
2021/07/07 12:20:51;;;;;;;1.90;1.00;;;;;;;;;;5113931;28;20024;-75
2021/07/07 12:23:17;;;;;;;1.30;1.00;;;;;;;;;;5120179;28;20052;-75
2021/07/07 12:25:43;;;;;;;1.92;1.20;;;;;;;;;;5119482;28;20433;-73
2021/07/07 12:28:10;;;;;;;3.28;1.10;;;;;;;;;;5120108;28;20024;-74
2021/07/07 12:30:37;;;;;;;1.20;1.08;;;;;;;;;;5119922;28;20028;-75
2021/07/07 12:33:03;;;;;;;1.33;1.02;;;;;;;;;;5120333;28;20091;-76
2021/07/07 12:35:30;;;;;;;2.05;1.20;;;;;;;;;;5120276;28;20076;-74
2021/07/07 12:37:56;;;;;;;3.38;1.20;;;;;;;;;;5120413;28;20094;-70
2021/07/07 12:40:22;;;;;;;1.73;0.95;;;;;;;;;;5119896;28;20510;-71
2021/07/07 12:42:54;;;;;;;4.18;1.17;;;;;;;;;;5119876;28;20073;-71
2021/07/07 12:45:20;;;;;;;1.80;1.13;;;;;;;;;;5119971;27;20115;-71
2021/07/07 12:48:02;;;;;;;3.70;1.13;;;;;;;;;;5120112;28;20495;-71
2021/07/07 12:50:33;;;;;;;1.38;1.13;;;;;;;;;;5118562;28;20130;-70
2021/07/07 12:52:59;;;;;;;2.05;1.02;;;;;;;;;;5119822;28;20019;-70
2021/07/07 12:55:26;;;;;;;1.35;1.13;;;;;;;;;;5119935;28;20475;-70
2021/07/07 12:58:01;;;;;;;1.83;1.10;;;;;;;;;;5118848;28;20019;-70
2021/07/07 13:00:34;;;;;;;3.35;1.30;;;;;;;;;;5120285;27;20047;-70
2021/07/07 13:03:02;;;;;;;2.25;1.15;;;;;;;;;;5120168;27;20028;-72
2021/07/07 13:05:43;;;;;;;1.75;1.10;;;;;;;;;;5119959;27;20019;-72
2021/07/07 13:08:13;;;;;;;1.75;1.10;;;;;;;;;;5120060;28;20023;-71
2021/07/07 13:10:44;;;;;;;1.40;1.10;;;;;;;;;;5120158;28;20119;-71
2021/07/07 13:13:42;;;;;;;2.42;0.93;;;;;;;;;;5120094;28;20356;-70
2021/07/07 13:16:08;;;;;;;2.47;1.30;;;;;;;;;;5096333;28;20036;-71
2021/07/07 13:18:35;;;;;;;1.65;1.20;;;;;;;;;;5120330;27;20069;-71
2021/07/07 13:21:05;;;;;;;1.95;1.20;;;;;;;;;;5119832;28;20016;-71
2021/07/07 13:23:32;;;;;;;1.63;1.33;;;;;;;;;;5118453;28;20036;-71
2021/07/07 13:26:16;;;;;;;2.20;1.52;;;;;;;;;;5119450;28;20468;-70
2021/07/07 13:28:43;;;;;;;1.58;1.20;;;;;;;;;;5119843;28;20020;-69
2021/07/07 13:31:13;;;;;;;1.85;1.23;;;;;;;;;;5119490;27;20476;-70
2021/07/07 13:33:39;;;;;;;1.85;1.05;;;;;;;;;;5116731;28;20435;-70
2021/07/07 13:36:05;;;;;;;2.72;1.20;;;;;;;;;;5116256;28;20360;-70
2021/07/07 13:38:31;;;;;;;7.32;1.27;;;;;;;;;;5115339;28;20080;-70
2021/07/07 13:40:57;;;;;;;5.22;1.00;;;;;;;;;;5115255;28;20484;-70
2021/07/07 13:43:24;;;;;;;3.42;1.20;;;;;;;;;;5115265;28;20145;-71
2021/07/07 13:45:50;;;;;;;4.68;1.20;;;;;;;;;;5115642;27;20471;-70
2021/07/07 13:48:16;;;;;;;1.73;1.25;;;;;;;;;;5115595;28;20028;-70
2021/07/07 13:50:42;;;;;;;4.07;1.15;;;;;;;;;;5115889;28;20031;-70
2021/07/07 13:53:08;;;;;;;1.60;1.17;;;;;;;;;;5114276;28;20133;-71
2021/07/07 13:55:34;;;;;;;1.70;1.40;;;;;;;;;;5115736;28;20459;-71
2021/07/07 13:58:01;;;;;;;6.80;1.30;;;;;;;;;;5115967;28;20028;-70
2021/07/07 14:00:27;;;;;;;4.25;1.27;;;;;;;;;;5115739;28;20020;-71
2021/07/07 14:02:53;;;;;;;6.78;1.23;;;;;;;;;;5115789;28;20027;-70
2021/07/07 14:05:19;;;;;;;2.17;1.33;;;;;;;;;;5114570;28;20034;-70
2021/07/07 14:07:46;;;;;;;3.25;1.17;;;;;;;;;;5114841;28;20023;-71
2021/07/07 14:10:12;;;;;;;4.82;1.13;;;;;;;;;;5114545;28;20031;-71
2021/07/07 14:12:38;;;;;;;1.48;1.10;;;;;;;;;;5115344;28;20065;-71
2021/07/07 14:15:05;;;;;;;1.77;1.10;;;;;;;;;;5113434;28;20433;-71
2021/07/07 14:17:31;;;;;;;2.17;1.30;;;;;;;;;;5114637;28;20020;-71
2021/07/07 14:19:57;;;;;;;3.38;1.45;;;;;;;;;;5114300;28;20119;-71
2021/07/07 14:22:23;;;;;;;2.00;1.17;;;;;;;;;;5114763;28;20016;-71
2021/07/07 14:24:49;;;;;;;2.30;1.10;;;;;;;;;;5113851;28;20118;-71
2021/07/07 14:27:15;;;;;;;4.22;1.45;;;;;;;;;;5114522;28;20388;-72
2021/07/07 14:29:42;;;;;;;2.20;1.20;;;;;;;;;;5114639;28;20095;-70
2021/07/07 14:32:08;;;;;;;4.30;1.45;;;;;;;;;;5113982;28;20028;-70
2021/07/07 14:34:34;;;;;;;1.67;1.35;;;;;;;;;;5114502;28;20369;-71
2021/07/07 14:37:00;;;;;;;1.92;1.20;;;;;;;;;;5113175;28;20036;-72
2021/07/07 14:39:26;;;;;;;2.95;1.35;;;;;;;;;;5113790;28;20632;-74
2021/07/07 14:41:52;;;;;;;3.25;1.45;;;;;;;;;;5114995;28;20088;-72